Time;durP1;ratioP1;P1;durP2;ratioP2;P2;SDS_P1;SDS_P2;PMS_P1;PMS_P2;Temp;Humidity;BMP_temperature;BMP_pressure;BME280_temperature;BME280_humidity;BME280_pressure;Samples;Min_cycle;Max_cycle;Signal;HPM_P1;HPM_P2
2022/09/03 00:01:51;;;;;;;1.10;1.00;;;26.30;58.00;;;;;;4922355;29;20489;-85
2022/09/03 00:04:26;;;;;;;1.20;1.10;;;26.30;58.10;;;;;;4942190;29;20449;-84
2022/09/03 00:07:01;;;;;;;1.67;1.20;;;26.30;58.20;;;;;;4942171;29;20441;-85
2022/09/03 00:09:34;;;;;;;1.40;1.30;;;26.30;58.20;;;;;;4941801;29;20528;-85
2022/09/03 00:12:08;;;;;;;1.10;1.00;;;26.30;58.20;;;;;;4942101;29;20446;-85
2022/09/03 00:14:40;;;;;;;1.10;1.00;;;26.30;58.20;;;;;;4942241;29;20532;-86
2022/09/03 00:17:12;;;;;;;1.30;1.20;;;26.30;58.20;;;;;;4941995;29;20486;-85
2022/09/03 00:19:45;;;;;;;1.27;1.10;;;26.30;58.20;;;;;;4942139;29;20931;-85
2022/09/03 00:22:17;;;;;;;1.20;1.10;;;26.20;58.20;;;;;;4942167;29;20473;-85
2022/09/03 00:24:46;;;;;;;1.30;1.20;;;26.20;58.20;;;;;;4942176;29;20873;-85
2022/09/03 00:27:17;;;;;;;1.20;1.00;;;26.20;58.30;;;;;;4941971;29;20546;-85
2022/09/03 00:29:48;;;;;;;1.30;1.20;;;26.20;58.40;;;;;;4941932;29;20538;-85
2022/09/03 00:32:20;;;;;;;1.20;1.10;;;26.20;58.80;;;;;;4938366;28;20451;-85
2022/09/03 00:34:51;;;;;;;1.30;1.10;;;26.20;58.30;;;;;;4939090;29;20478;-85
2022/09/03 00:37:20;;;;;;;1.20;1.10;;;26.20;58.30;;;;;;4938799;29;20471;-84
2022/09/03 00:39:46;;;;;;;1.10;1.00;;;26.20;58.70;;;;;;4938916;29;20449;-85
2022/09/03 00:42:29;;;;;;;1.27;1.17;;;26.20;58.30;;;;;;4938341;29;20487;-85
2022/09/03 00:45:09;;;;;;;1.17;1.07;;;26.20;58.30;;;;;;4938818;29;20533;-85
2022/09/03 00:47:48;;;;;;;1.40;0.90;;;26.20;58.40;;;;;;4938627;29;20446;-85
2022/09/03 00:50:25;;;;;;;1.10;1.00;;;26.20;58.50;;;;;;4938917;29;20467;-84
2022/09/03 00:53:03;;;;;;;1.17;1.07;;;26.20;58.60;;;;;;4938679;29;20467;-85
2022/09/03 00:55:40;;;;;;;1.40;1.30;;;26.20;58.50;;;;;;4938664;29;20966;-85
2022/09/03 00:58:43;;;;;;;1.20;1.10;;;26.20;58.60;;;;;;4938732;29;20542;-85
2022/09/03 01:01:18;;;;;;;1.20;1.10;;;26.20;58.60;;;;;;4938466;29;20451;-85
2022/09/03 01:03:53;;;;;;;2.30;1.10;;;26.20;58.70;;;;;;4938334;29;20778;-85
2022/09/03 01:06:29;;;;;;;1.20;1.10;;;26.20;58.70;;;;;;4938238;29;20525;-89
2022/09/03 01:09:10;;;;;;;1.10;1.00;;;26.20;58.80;;;;;;4937855;29;20582;-85
2022/09/03 01:11:47;;;;;;;1.20;1.10;;;26.20;58.60;;;;;;4938119;29;20494;-85
2022/09/03 01:14:21;;;;;;;1.40;1.00;;;26.20;58.60;;;;;;4938013;29;20578;-84
2022/09/03 01:16:52;;;;;;;1.40;1.30;;;26.20;58.70;;;;;;4938427;29;20947;-85
2022/09/03 01:19:50;;;;;;;1.33;1.23;;;26.20;58.80;;;;;;4937800;29;20490;-84
2022/09/03 01:22:42;;;;;;;1.10;1.00;;;26.20;58.70;;;;;;4937785;29;20499;-85
2022/09/03 01:25:30;;;;;;;1.00;0.97;;;26.20;58.80;;;;;;4938159;29;20856;-84
2022/09/03 01:28:12;;;;;;;1.27;1.17;;;26.20;58.80;;;;;;4937962;29;20483;-85
2022/09/03 01:30:47;;;;;;;0.80;0.77;;;26.20;59.50;;;;;;4937267;29;20873;-84
2022/09/03 01:33:21;;;;;;;1.20;1.10;;;26.10;58.80;;;;;;4937828;29;20551;-85
2022/09/03 01:35:53;;;;;;;1.10;1.00;;;26.20;58.80;;;;;;4937860;29;21014;-85
2022/09/03 01:38:33;;;;;;;1.17;1.07;;;26.20;58.90;;;;;;4937905;29;20443;-85
2022/09/03 01:44:05;;;;;;;1.57;0.90;;;26.20;59.40;;;;;;4898029;29;20439;-84
2022/09/03 01:46:39;;;;;;;0.90;0.80;;;26.10;58.80;;;;;;4937669;29;20556;-85
2022/09/03 01:49:25;;;;;;;1.33;1.10;;;26.20;58.80;;;;;;4937409;29;20578;-85
2022/09/03 01:52:02;;;;;;;1.30;1.20;;;26.20;58.90;;;;;;4937277;29;20869;-85
2022/09/03 01:54:58;;;;;;;1.40;1.10;;;26.10;58.80;;;;;;4937570;29;20454;-85
2022/09/03 01:57:54;;;;;;;1.43;1.20;;;26.20;58.80;;;;;;4937073;29;20454;-84
2022/09/03 02:00:24;;;;;;;1.03;0.93;;;26.10;58.80;;;;;;4930650;29;20970;-85
2022/09/03 02:02:53;;;;;;;1.10;1.00;;;26.10;58.90;;;;;;4937167;29;20896;-85
2022/09/03 02:05:22;;;;;;;1.00;0.90;;;26.10;58.80;;;;;;4937032;29;20899;-85
2022/09/03 02:07:54;;;;;;;1.10;0.90;;;26.10;58.90;;;;;;4937008;29;20479;-85
2022/09/03 02:10:26;;;;;;;1.10;1.00;;;26.10;58.80;;;;;;4936925;29;20490;-85
2022/09/03 02:12:58;;;;;;;1.10;1.00;;;26.10;58.80;;;;;;4937081;29;20462;-85
2022/09/03 02:15:29;;;;;;;1.07;0.97;;;26.10;58.80;;;;;;4936947;29;20852;-84
2022/09/03 02:18:01;;;;;;;1.10;1.00;;;26.10;58.80;;;;;;4937075;29;20534;-84
2022/09/03 02:20:30;;;;;;;1.03;0.93;;;26.10;58.90;;;;;;4936703;29;20879;-84
2022/09/03 02:22:58;;;;;;;1.20;1.10;;;26.10;58.80;;;;;;4936857;29;20483;-85
2022/09/03 02:25:32;;;;;;;1.10;0.90;;;26.10;59.00;;;;;;4936883;29;20444;-85
2022/09/03 02:27:59;;;;;;;1.20;1.10;;;26.10;58.90;;;;;;4936805;29;20779;-85
2022/09/03 02:30:28;;;;;;;1.30;1.20;;;26.10;58.90;;;;;;4936694;29;20448;-85
2022/09/03 02:32:54;;;;;;;1.00;0.90;;;26.10;58.80;;;;;;4936948;29;20877;-85
2022/09/03 02:35:21;;;;;;;1.20;1.10;;;26.10;58.90;;;;;;4936718;29;20852;-85
2022/09/03 02:37:48;;;;;;;1.87;1.00;;;26.10;58.90;;;;;;4936785;29;20468;-85
2022/09/03 02:40:16;;;;;;;1.30;1.20;;;26.10;58.90;;;;;;4936628;29;20466;-85
2022/09/03 02:42:42;;;;;;;1.03;0.93;;;26.10;58.80;;;;;;4936565;29;20479;-85
2022/09/03 02:45:20;;;;;;;0.83;0.80;;;26.10;58.90;;;;;;4936705;29;20939;-84
2022/09/03 02:47:52;;;;;;;1.20;1.10;;;26.10;58.80;;;;;;4936545;29;20439;-85
2022/09/03 02:50:19;;;;;;;1.30;1.10;;;26.10;58.90;;;;;;4936149;29;21010;-85
2022/09/03 02:52:46;;;;;;;1.00;0.90;;;26.10;58.80;;;;;;4936431;29;20546;-85
2022/09/03 02:55:13;;;;;;;1.13;1.03;;;26.10;58.80;;;;;;4936040;29;20443;-84
2022/09/03 02:57:40;;;;;;;1.07;0.97;;;26.10;58.80;;;;;;4936163;29;20439;-85
2022/09/03 03:00:08;;;;;;;1.40;1.30;;;26.10;59.40;;;;;;4935823;29;20471;-84
2022/09/03 03:02:35;;;;;;;1.03;0.93;;;26.10;58.80;;;;;;4936161;29;20450;-85
2022/09/03 03:05:07;;;;;;;0.80;0.80;;;26.10;58.80;;;;;;4936302;29;20664;-85
2022/09/03 03:07:38;;;;;;;0.97;0.90;;;26.10;58.90;;;;;;4936459;29;20447;-84
2022/09/03 03:10:06;;;;;;;1.00;0.93;;;26.10;58.90;;;;;;4935731;29;20518;-84
2022/09/03 03:12:33;;;;;;;1.00;0.90;;;26.10;58.90;;;;;;4936069;29;20443;-84
2022/09/03 03:15:00;;;;;;;1.00;0.90;;;26.10;59.50;;;;;;4936030;29;20443;-84
2022/09/03 03:17:27;;;;;;;1.00;0.90;;;26.10;58.80;;;;;;4936233;29;20874;-85
2022/09/03 03:19:54;;;;;;;1.03;0.93;;;26.10;58.80;;;;;;4936282;29;20440;-84
2022/09/03 03:22:22;;;;;;;1.10;1.00;;;26.10;58.80;;;;;;4935677;29;20497;-85
2022/09/03 03:24:51;;;;;;;1.00;0.90;;;26.10;58.80;;;;;;4936195;29;20475;-85
2022/09/03 03:27:19;;;;;;;1.13;1.03;;;26.10;58.90;;;;;;4935871;29;20443;-87
2022/09/03 03:29:45;;;;;;;1.10;1.00;;;26.10;58.90;;;;;;4936010;29;20487;-85
2022/09/03 03:32:12;;;;;;;1.00;0.90;;;26.10;58.90;;;;;;4936069;29;20475;-85
2022/09/03 03:34:39;;;;;;;1.00;0.90;;;26.00;59.10;;;;;;4936071;29;20522;-85
2022/09/03 03:37:06;;;;;;;1.00;0.90;;;26.10;58.90;;;;;;4935859;29;20499;-85
2022/09/03 03:39:34;;;;;;;1.17;1.07;;;26.10;58.90;;;;;;4936096;29;20931;-84
2022/09/03 03:42:01;;;;;;;0.97;0.87;;;26.10;58.80;;;;;;4935988;29;20467;-84
2022/09/03 03:44:28;;;;;;;0.80;0.80;;;26.00;58.80;;;;;;4935598;29;20486;-84
2022/09/03 03:46:55;;;;;;;1.30;0.90;;;26.10;58.90;;;;;;4935864;29;20450;-84
2022/09/03 03:49:22;;;;;;;0.90;0.80;;;26.00;58.80;;;;;;4935645;29;20578;-85
2022/09/03 03:51:49;;;;;;;1.10;0.90;;;26.00;58.80;;;;;;4935796;29;20463;-85
2022/09/03 03:54:16;;;;;;;0.97;0.90;;;26.10;58.90;;;;;;4935897;29;20538;-84
2022/09/03 03:56:44;;;;;;;1.00;0.90;;;26.10;58.90;;;;;;4936033;29;20447;-85
2022/09/03 03:59:11;;;;;;;1.00;0.90;;;26.00;58.80;;;;;;4935889;29;20447;-85
2022/09/03 04:01:37;;;;;;;1.17;1.07;;;26.00;58.90;;;;;;4935829;29;20538;-84
2022/09/03 04:04:05;;;;;;;1.10;1.00;;;26.00;58.80;;;;;;4935865;29;20530;-85
2022/09/03 04:06:32;;;;;;;1.23;1.13;;;26.00;58.80;;;;;;4937705;29;20817;-85
2022/09/03 04:08:58;;;;;;;1.10;1.00;;;26.00;58.80;;;;;;4939150;29;20478;-85
2022/09/03 04:11:26;;;;;;;1.23;1.13;;;26.00;58.80;;;;;;4939394;29;20443;-85
2022/09/03 04:13:54;;;;;;;1.10;1.00;;;26.00;58.90;;;;;;4938979;29;20479;-84
2022/09/03 04:16:23;;;;;;;0.87;0.80;;;26.00;58.80;;;;;;4939322;29;20993;-85
2022/09/03 04:18:51;;;;;;;0.70;0.70;;;26.00;58.80;;;;;;4939278;29;20540;-84
2022/09/03 04:21:19;;;;;;;1.00;0.90;;;26.00;58.90;;;;;;4938662;29;20471;-85
2022/09/03 04:23:47;;;;;;;1.17;1.07;;;26.00;58.80;;;;;;4938669;29;20819;-85
2022/09/03 04:26:16;;;;;;;1.00;0.90;;;26.00;58.80;;;;;;4938917;29;20538;-84
2022/09/03 04:28:44;;;;;;;1.00;0.90;;;26.00;58.80;;;;;;4939142;29;20453;-85
2022/09/03 04:31:14;;;;;;;1.00;0.90;;;26.00;58.90;;;;;;4939016;29;20478;-85
2022/09/03 04:33:41;;;;;;;1.00;0.90;;;26.00;58.90;;;;;;4939085;29;20785;-85
2022/09/03 04:36:10;;;;;;;1.10;0.90;;;26.00;58.80;;;;;;4939141;29;20538;-85
2022/09/03 04:38:39;;;;;;;0.90;0.80;;;26.00;58.90;;;;;;4938495;29;20878;-84
2022/09/03 04:41:06;;;;;;;1.00;0.90;;;26.00;58.90;;;;;;4938744;29;20554;-85
2022/09/03 04:43:34;;;;;;;0.90;0.90;;;26.00;58.90;;;;;;4938792;29;20443;-85
2022/09/03 04:46:02;;;;;;;0.90;0.80;;;26.00;58.80;;;;;;4938869;29;20768;-84
2022/09/03 04:48:32;;;;;;;0.90;0.80;;;26.00;59.40;;;;;;4938732;29;20494;-85
2022/09/03 04:51:04;;;;;;;1.00;0.90;;;26.00;58.80;;;;;;4938490;29;20979;-85
2022/09/03 04:53:31;;;;;;;0.83;0.80;;;26.00;58.90;;;;;;4938632;29;20942;-85
2022/09/03 04:55:57;;;;;;;1.40;0.90;;;26.00;58.80;;;;;;4938557;29;20443;-84
2022/09/03 04:58:24;;;;;;;0.90;0.80;;;26.00;58.80;;;;;;4938568;29;20534;-85
2022/09/03 05:00:51;;;;;;;1.03;0.93;;;26.00;58.80;;;;;;4938362;29;20951;-85
2022/09/03 05:03:19;;;;;;;0.80;0.70;;;26.00;58.80;;;;;;4938278;29;20443;-84
2022/09/03 05:05:53;;;;;;;1.13;0.93;;;26.00;58.80;;;;;;4937992;29;20975;-84
2022/09/03 05:08:20;;;;;;;0.80;0.80;;;26.00;58.80;;;;;;4937965;29;20458;-85
2022/09/03 05:10:47;;;;;;;1.00;0.87;;;26.00;58.80;;;;;;4938278;29;20494;-84
2022/09/03 05:13:14;;;;;;;1.07;0.97;;;26.00;58.80;;;;;;4938262;29;20486;-85
2022/09/03 05:15:43;;;;;;;0.80;0.70;;;26.00;58.70;;;;;;4938622;29;20455;-84
2022/09/03 05:18:09;;;;;;;1.00;0.80;;;26.00;58.80;;;;;;4937451;29;20456;-85
2022/09/03 05:20:36;;;;;;;1.00;0.90;;;26.00;58.80;;;;;;4937885;29;20562;-85
2022/09/03 05:23:04;;;;;;;1.17;1.07;;;26.00;58.80;;;;;;4938125;29;20537;-85
2022/09/03 05:25:32;;;;;;;1.00;0.90;;;26.00;58.80;;;;;;4937819;29;20982;-85
2022/09/03 05:27:59;;;;;;;0.93;0.83;;;26.00;58.80;;;;;;4938130;29;20453;-85
2022/09/03 05:30:25;;;;;;;0.80;0.80;;;26.00;58.80;;;;;;4937306;29;20586;-84
2022/09/03 05:32:52;;;;;;;1.13;1.03;;;26.00;58.80;;;;;;4938093;29;20550;-84
2022/09/03 05:35:19;;;;;;;0.93;0.83;;;26.00;58.80;;;;;;4937493;29;20799;-85
2022/09/03 05:37:46;;;;;;;1.00;0.90;;;26.00;58.80;;;;;;4937889;29;20447;-85
2022/09/03 05:40:15;;;;;;;1.10;1.00;;;26.00;58.80;;;;;;4937898;29;20958;-85
2022/09/03 05:42:42;;;;;;;1.47;1.00;;;26.00;58.80;;;;;;4937874;29;20885;-85
2022/09/03 05:45:10;;;;;;;0.80;0.70;;;26.00;58.80;;;;;;4937951;29;20514;-85
2022/09/03 05:47:39;;;;;;;1.00;0.90;;;26.00;58.80;;;;;;4937408;29;20470;-85
2022/09/03 05:50:09;;;;;;;0.90;0.77;;;26.00;58.80;;;;;;4936939;29;21032;-85
2022/09/03 05:52:36;;;;;;;0.80;0.73;;;26.00;58.80;;;;;;4937687;29;20453;-85
2022/09/03 05:55:03;;;;;;;1.10;1.00;;;26.00;58.70;;;;;;4937417;29;20969;-84
2022/09/03 05:57:32;;;;;;;0.87;0.70;;;26.00;58.80;;;;;;4937642;29;20862;-85
2022/09/03 05:59:59;;;;;;;0.83;0.80;;;26.00;58.80;;;;;;4937342;29;20548;-85
2022/09/03 06:02:26;;;;;;;1.00;0.90;;;26.00;58.80;;;;;;4936829;29;20455;-84
2022/09/03 06:04:53;;;;;;;0.80;0.80;;;26.00;58.80;;;;;;4937083;29;20986;-85
2022/09/03 06:07:20;;;;;;;1.00;0.90;;;26.00;58.70;;;;;;4937264;29;20455;-84
2022/09/03 06:09:47;;;;;;;1.03;0.93;;;26.00;58.80;;;;;;4936817;29;20486;-85
2022/09/03 06:12:14;;;;;;;1.00;0.90;;;26.00;58.80;;;;;;4937277;29;20887;-85
2022/09/03 06:14:42;;;;;;;1.03;0.93;;;26.00;58.80;;;;;;4937207;29;20969;-84
2022/09/03 06:17:11;;;;;;;0.87;0.80;;;26.00;58.80;;;;;;4936896;29;20447;-85
2022/09/03 06:19:38;;;;;;;0.83;0.80;;;26.00;59.30;;;;;;4936786;29;20808;-85
2022/09/03 06:22:05;;;;;;;0.80;0.70;;;26.00;58.80;;;;;;4937110;29;20464;-85
2022/09/03 06:24:32;;;;;;;0.80;0.80;;;26.00;58.80;;;;;;4937556;29;20454;-84
2022/09/03 06:26:59;;;;;;;0.83;0.77;;;26.00;58.80;;;;;;4936590;29;20538;-84
2022/09/03 06:29:26;;;;;;;0.87;0.77;;;26.00;58.80;;;;;;4935578;29;20578;-84
2022/09/03 06:31:55;;;;;;;0.80;0.70;;;26.00;58.80;;;;;;4936990;29;20455;-84
2022/09/03 06:34:24;;;;;;;0.80;0.80;;;26.00;58.80;;;;;;4936825;29;20447;-84
2022/09/03 06:36:51;;;;;;;0.80;0.70;;;26.00;58.80;;;;;;4928363;29;20988;-85
2022/09/03 06:39:18;;;;;;;0.80;0.80;;;26.00;58.80;;;;;;4918047;29;20455;-85
2022/09/03 06:41:50;;;;;;;1.03;0.93;;;26.00;58.80;;;;;;4917917;29;20866;-84
2022/09/03 06:44:17;;;;;;;0.80;0.67;;;26.00;58.80;;;;;;4917502;29;20453;-84
2022/09/03 06:46:47;;;;;;;1.00;0.73;;;26.00;58.80;;;;;;4922663;29;20568;-84
2022/09/03 06:49:15;;;;;;;0.90;0.80;;;26.00;58.90;;;;;;4936391;29;20451;-85
2022/09/03 06:51:43;;;;;;;0.80;0.70;;;26.10;58.90;;;;;;4936286;29;20550;-84
2022/09/03 06:54:11;;;;;;;0.80;0.80;;;26.00;58.90;;;;;;4936155;29;20804;-85
2022/09/03 06:56:40;;;;;;;2.13;0.90;;;26.10;58.90;;;;;;4935546;29;20451;-84
2022/09/03 06:59:08;;;;;;;1.10;1.00;;;26.10;58.70;;;;;;4936420;29;20443;-86
2022/09/03 07:01:37;;;;;;;0.97;0.87;;;26.10;58.60;;;;;;4935963;29;20553;-84
2022/09/03 07:04:06;;;;;;;1.10;0.90;;;26.00;58.60;;;;;;4935593;29;20480;-86
2022/09/03 07:06:37;;;;;;;1.70;1.10;;;26.10;58.70;;;;;;4935247;29;20487;-82
2022/09/03 07:09:04;;;;;;;1.77;1.20;;;25.80;57.30;;;;;;4935449;29;21006;-83
2022/09/03 07:11:34;;;;;;;7.17;1.30;;;25.50;57.30;;;;;;4936313;29;20894;-87
2022/09/03 07:14:02;;;;;;;1.40;1.10;;;25.40;57.30;;;;;;4935812;29;20596;-83
2022/09/03 07:16:31;;;;;;;1.40;1.03;;;25.40;57.40;;;;;;4935688;29;20533;-86
2022/09/03 07:18:59;;;;;;;1.93;1.47;;;25.40;57.50;;;;;;4935190;29;20538;-85
2022/09/03 07:21:27;;;;;;;5.53;1.40;;;25.40;57.30;;;;;;4920366;29;21047;-86
2022/09/03 07:23:57;;;;;;;8.50;1.80;;;25.40;57.30;;;;;;4917068;29;20448;-85
2022/09/03 07:26:25;;;;;;;2.23;1.37;;;25.40;57.40;;;;;;4916872;29;20962;-84
2022/09/03 07:28:53;;;;;;;1.33;1.20;;;25.30;57.30;;;;;;4916852;29;20880;-84
2022/09/03 07:31:24;;;;;;;3.63;1.00;;;25.30;57.40;;;;;;4915818;29;20495;-85
2022/09/03 07:33:54;;;;;;;3.43;1.20;;;25.40;57.50;;;;;;4915600;29;20459;-85
2022/09/03 07:36:22;;;;;;;2.40;1.20;;;25.30;57.50;;;;;;4916356;29;21011;-85
2022/09/03 07:38:49;;;;;;;3.50;1.30;;;25.30;57.40;;;;;;4916990;29;20479;-85
2022/09/03 07:41:17;;;;;;;7.73;1.27;;;25.30;57.50;;;;;;4918045;29;20535;-85
2022/09/03 07:43:47;;;;;;;2.90;1.17;;;25.30;57.60;;;;;;4920657;29;20448;-85
2022/09/03 07:46:15;;;;;;;2.20;1.13;;;25.30;57.60;;;;;;4920326;29;21005;-85
2022/09/03 07:48:42;;;;;;;2.17;1.40;;;25.40;57.70;;;;;;4918152;29;20448;-85
2022/09/03 07:51:10;;;;;;;3.53;1.30;;;25.40;57.60;;;;;;4918118;29;20491;-85
2022/09/03 07:53:36;;;;;;;1.00;0.90;;;25.40;58.20;;;;;;4918300;29;20456;-84
2022/09/03 07:56:05;;;;;;;1.33;1.00;;;25.40;57.60;;;;;;4918338;29;20550;-91
2022/09/03 07:58:35;;;;;;;1.50;0.90;;;25.50;57.70;;;;;;4921080;29;20448;-84
2022/09/03 08:01:07;;;;;;;1.87;1.10;;;25.50;57.70;;;;;;4936797;29;20440;-91
2022/09/03 08:03:34;;;;;;;1.77;1.20;;;25.50;57.70;;;;;;4939277;29;20541;-91
2022/09/03 08:06:02;;;;;;;1.37;0.93;;;25.60;57.70;;;;;;4952646;29;20560;-91
2022/09/03 08:08:29;;;;;;;3.13;0.97;;;25.60;57.70;;;;;;4958383;29;20934;-88
2022/09/03 08:11:02;;;;;;;3.20;1.10;;;25.60;57.70;;;;;;4958261;29;20533;-85
2022/09/03 08:13:29;;;;;;;2.13;1.10;;;25.60;57.70;;;;;;4958582;29;20453;-91
2022/09/03 08:15:59;;;;;;;1.27;1.00;;;25.70;58.40;;;;;;4958240;29;20449;-89
2022/09/03 08:18:26;;;;;;;2.40;1.10;;;25.70;57.90;;;;;;4958902;29;20442;-86
2022/09/03 08:20:53;;;;;;;2.43;1.40;;;25.70;57.90;;;;;;4958358;29;20476;-91
2022/09/03 08:23:19;;;;;;;2.20;1.10;;;25.70;57.90;;;;;;4958465;29;20529;-85
2022/09/03 08:25:46;;;;;;;0.90;0.80;;;25.70;57.90;;;;;;4958469;29;20827;-85
2022/09/03 08:28:13;;;;;;;4.60;1.37;;;25.80;57.90;;;;;;4958182;29;20541;-85
2022/09/03 08:30:40;;;;;;;1.00;0.90;;;25.80;58.00;;;;;;4958125;29;20572;-85
2022/09/03 08:33:08;;;;;;;2.00;1.30;;;25.80;58.00;;;;;;4958427;29;20549;-85
2022/09/03 08:35:36;;;;;;;1.10;1.00;;;25.80;58.00;;;;;;4958324;29;20482;-91
2022/09/03 08:38:05;;;;;;;1.27;1.03;;;25.90;58.10;;;;;;4958531;29;20821;-86
2022/09/03 08:40:36;;;;;;;1.07;0.97;;;25.80;58.10;;;;;;4958197;29;20452;-85
2022/09/03 08:43:12;;;;;;;1.47;0.93;;;25.90;58.30;;;;;;4958455;29;20446;-85
2022/09/03 08:45:40;;;;;;;5.50;1.20;;;25.90;58.20;;;;;;4958285;29;20934;-85
2022/09/03 08:48:13;;;;;;;1.10;1.00;;;25.90;58.30;;;;;;4959230;29;20442;-87
2022/09/03 08:50:44;;;;;;;2.37;1.13;;;26.00;58.30;;;;;;4959477;29;20846;-85
2022/09/03 08:53:17;;;;;;;3.33;1.20;;;26.00;58.30;;;;;;4957926;28;20541;-87
2022/09/03 08:55:50;;;;;;;1.50;0.97;;;26.00;58.90;;;;;;4958196;29;20988;-87
2022/09/03 08:58:19;;;;;;;2.73;0.90;;;26.00;58.30;;;;;;4957844;29;20546;-85
2022/09/03 09:00:52;;;;;;;6.20;1.57;;;26.00;58.30;;;;;;4957513;29;20490;-85
2022/09/03 09:03:53;;;;;;;1.50;1.10;;;26.00;58.30;;;;;;4957772;29;20449;-83
2022/09/03 09:06:29;;;;;;;5.23;1.30;;;26.10;58.20;;;;;;4941510;29;20549;-85
2022/09/03 09:09:03;;;;;;;1.57;0.93;;;26.00;58.30;;;;;;4938752;29;20446;-85
2022/09/03 09:11:41;;;;;;;1.03;0.90;;;26.00;58.40;;;;;;4938421;29;20490;-90
2022/09/03 09:14:19;;;;;;;1.40;1.30;;;26.10;58.40;;;;;;4937883;29;21227;-86
2022/09/03 09:16:55;;;;;;;1.77;1.10;;;26.10;58.40;;;;;;4938211;29;20497;-86
2022/09/03 09:19:37;;;;;;;1.23;1.10;;;26.00;58.50;;;;;;4938257;29;20943;-85
2022/09/03 09:22:10;;;;;;;1.93;1.03;;;26.10;58.60;;;;;;4937923;29;20506;-85
2022/09/03 09:24:41;;;;;;;1.57;1.00;;;26.10;58.70;;;;;;4938022;29;20518;-87
2022/09/03 09:27:08;;;;;;;2.33;1.03;;;26.10;58.70;;;;;;4937896;29;20439;-88
2022/09/03 09:29:37;;;;;;;1.97;0.93;;;26.00;58.70;;;;;;4937753;29;20447;-85
2022/09/03 09:32:09;;;;;;;2.30;0.90;;;26.10;58.70;;;;;;4937682;29;20486;-87
2022/09/03 09:34:40;;;;;;;1.97;1.33;;;26.10;58.80;;;;;;4937692;29;20534;-86
2022/09/03 09:37:09;;;;;;;2.07;1.00;;;26.10;58.70;;;;;;4941434;29;20446;-94
2022/09/03 09:39:36;;;;;;;2.57;1.20;;;26.10;58.80;;;;;;4937995;29;20443;-85
2022/09/03 09:42:08;;;;;;;2.40;1.00;;;26.10;58.80;;;;;;4938163;29;20450;-94
2022/09/03 09:44:35;;;;;;;2.73;0.93;;;26.10;58.80;;;;;;4938077;29;20454;-84
2022/09/03 09:47:06;;;;;;;2.80;1.30;;;26.10;58.90;;;;;;4937877;29;20447;-92
2022/09/03 09:49:35;;;;;;;1.90;1.23;;;26.10;58.90;;;;;;4938135;29;20439;-95
2022/09/03 09:52:07;;;;;;;3.10;1.20;;;26.00;58.80;;;;;;4939142;29;20513;-94
2022/09/03 09:54:34;;;;;;;3.17;1.10;;;26.10;58.90;;;;;;4937976;29;20641;-94
2022/09/03 09:57:03;;;;;;;1.20;1.00;;;26.10;58.90;;;;;;4938169;29;20530;-84
2022/09/03 09:59:32;;;;;;;1.73;1.20;;;26.10;58.90;;;;;;4938210;29;20502;-93
2022/09/03 10:02:11;;;;;;;1.10;1.00;;;26.10;59.00;;;;;;4938425;29;20438;-91
2022/09/03 10:04:39;;;;;;;2.90;1.20;;;26.20;59.00;;;;;;4939228;29;20805;-84
2022/09/03 10:07:23;;;;;;;0.90;0.80;;;26.10;58.90;;;;;;4956599;29;20485;-84
2022/09/03 10:10:00;;;;;;;2.70;1.00;;;26.20;59.00;;;;;;4956562;29;20450;-93
2022/09/03 10:12:34;;;;;;;1.10;1.00;;;26.10;58.90;;;;;;4941719;29;20565;-92
2022/09/03 10:15:10;;;;;;;2.80;1.27;;;26.10;59.60;;;;;;4956295;29;20963;-93
2022/09/03 10:17:47;;;;;;;1.10;1.00;;;26.10;59.00;;;;;;4956786;29;20438;-90
2022/09/03 10:20:29;;;;;;;1.67;1.07;;;26.10;59.10;;;;;;4946912;29;20545;-92
2022/09/03 10:23:02;;;;;;;1.57;1.10;;;26.10;59.70;;;;;;4957135;29;20446;-89
2022/09/03 10:25:39;;;;;;;1.27;0.90;;;26.10;59.10;;;;;;4956254;29;20450;-91
2022/09/03 10:28:08;;;;;;;1.20;1.10;;;26.10;59.00;;;;;;4956782;29;20453;-83
2022/09/03 10:30:45;;;;;;;1.20;1.10;;;26.10;59.10;;;;;;4956283;29;20537;-84
2022/09/03 10:33:19;;;;;;;3.23;1.10;;;26.20;59.80;;;;;;4955688;29;20456;-84
2022/09/03 10:35:52;;;;;;;1.23;1.13;;;26.10;59.10;;;;;;4956291;29;20466;-84
2022/09/03 10:38:28;;;;;;;3.60;1.10;;;26.20;59.20;;;;;;4955789;28;20538;-84
2022/09/03 10:41:02;;;;;;;2.00;1.00;;;26.20;59.10;;;;;;4956494;28;20446;-85
2022/09/03 10:43:54;;;;;;;1.17;1.07;;;26.00;59.00;;;;;;4955826;28;20537;-84
2022/09/03 10:46:27;;;;;;;1.40;0.97;;;26.20;59.20;;;;;;4953218;29;20450;-84
2022/09/03 10:49:15;;;;;;;1.33;1.10;;;26.20;59.20;;;;;;4955739;29;20477;-87
2022/09/03 10:51:47;;;;;;;1.67;1.13;;;26.20;59.20;;;;;;4955785;29;20533;-84
2022/09/03 10:54:39;;;;;;;1.73;1.03;;;26.20;59.30;;;;;;4955528;28;20531;-87
2022/09/03 16:27:21;;;;;;;1.03;0.93;;;26.30;61.00;;;;;;4940207;29;20470;-89
2022/09/03 16:30:01;;;;;;;0.90;0.80;;;26.30;61.20;;;;;;4938925;29;20446;-85
2022/09/03 16:32:43;;;;;;;1.10;1.00;;;26.30;61.00;;;;;;4938539;29;20851;-84
2022/09/03 16:35:20;;;;;;;1.30;1.20;;;26.30;61.10;;;;;;4938798;29;20903;-84
2022/09/03 16:38:01;;;;;;;1.10;1.00;;;26.30;61.20;;;;;;4939258;29;20447;-84
2022/09/03 16:40:37;;;;;;;1.07;0.97;;;26.40;61.30;;;;;;4940938;29;20518;-84
2022/09/03 16:43:13;;;;;;;1.57;1.47;;;26.30;61.10;;;;;;4938708;29;20455;-84
2022/09/03 16:45:50;;;;;;;1.20;1.10;;;26.40;61.20;;;;;;4938685;29;20451;-84
2022/09/03 16:48:28;;;;;;;1.40;1.30;;;26.40;61.10;;;;;;4937995;29;20450;-83
2022/09/03 16:51:07;;;;;;;1.47;1.30;;;26.40;61.10;;;;;;4938220;29;20641;-83
2022/09/03 16:53:49;;;;;;;1.20;1.10;;;26.50;61.10;;;;;;4938339;29;20451;-84
2022/09/03 16:56:43;;;;;;;1.13;1.03;;;26.40;61.00;;;;;;4938368;29;20474;-88
2022/09/03 16:59:29;;;;;;;1.30;1.20;;;26.50;61.10;;;;;;4933910;29;20447;-84
2022/09/03 17:02:10;;;;;;;1.20;1.10;;;26.50;61.10;;;;;;4939001;29;20796;-84
2022/09/03 17:05:00;;;;;;;1.33;1.20;;;26.50;61.10;;;;;;4938538;29;20538;-84
2022/09/03 17:07:46;;;;;;;2.60;1.40;;;26.50;61.10;;;;;;4938444;29;20523;-83
2022/09/03 17:10:22;;;;;;;1.27;1.17;;;26.40;61.00;;;;;;4938665;29;20957;-88
2022/09/03 17:12:55;;;;;;;1.40;1.30;;;26.40;61.10;;;;;;4938019;29;20486;-84
2022/09/03 17:15:33;;;;;;;1.10;1.00;;;26.50;61.20;;;;;;4938303;29;20526;-87
2022/09/03 17:18:21;;;;;;;2.13;1.17;;;26.40;61.00;;;;;;4938761;29;20446;-90
2022/09/03 17:21:05;;;;;;;1.40;1.30;;;26.40;61.20;;;;;;4937901;29;20474;-85
2022/09/03 17:23:50;;;;;;;1.60;1.10;;;26.40;61.40;;;;;;4938274;29;20787;-90
2022/09/03 17:26:24;;;;;;;1.53;1.43;;;26.40;61.50;;;;;;4937897;29;20570;-84
2022/09/03 17:29:03;;;;;;;1.27;1.17;;;26.40;61.60;;;;;;4938065;29;21006;-85
2022/09/03 17:31:50;;;;;;;1.40;1.30;;;26.40;61.50;;;;;;4937863;29;20479;-89
2022/09/03 17:34:34;;;;;;;2.13;1.30;;;26.40;61.60;;;;;;4937802;29;20534;-85
2022/09/03 17:37:14;;;;;;;1.10;1.00;;;26.40;61.60;;;;;;4937878;29;20450;-86
2022/09/03 17:40:17;;;;;;;1.10;1.00;;;26.40;61.60;;;;;;4937849;29;20794;-85
2022/09/03 17:42:54;;;;;;;1.20;1.10;;;26.40;61.50;;;;;;4937869;29;20447;-86
2022/09/03 17:45:36;;;;;;;1.30;1.20;;;26.40;61.70;;;;;;4937809;29;20447;-85
2022/09/03 17:48:22;;;;;;;1.83;0.90;;;26.40;61.70;;;;;;4937833;29;20871;-85
2022/09/03 17:50:56;;;;;;;1.10;1.00;;;26.40;61.70;;;;;;4937604;29;20472;-86
2022/09/03 17:53:30;;;;;;;2.77;1.27;;;26.40;62.70;;;;;;4937663;29;20479;-86
2022/09/03 17:56:01;;;;;;;1.40;1.30;;;26.40;61.70;;;;;;4918599;29;20450;-86
2022/09/03 17:58:34;;;;;;;1.53;1.43;;;26.40;62.40;;;;;;4921351;29;20849;-85
2022/09/03 18:01:11;;;;;;;3.63;1.37;;;26.40;61.80;;;;;;4954060;29;20471;-87
2022/09/03 18:03:45;;;;;;;1.50;1.40;;;26.40;61.80;;;;;;4960226;29;20455;-86
2022/09/03 18:06:25;;;;;;;4.93;1.23;;;26.40;62.10;;;;;;4954361;29;20451;-87
2022/09/03 18:08:56;;;;;;;1.53;1.10;;;26.40;62.10;;;;;;4937461;29;20483;-89
2022/09/03 18:11:31;;;;;;;1.33;1.23;;;26.40;62.20;;;;;;4937240;29;21002;-87
2022/09/03 18:14:06;;;;;;;1.43;1.33;;;26.40;62.30;;;;;;4937603;29;20439;-86
2022/09/03 18:16:37;;;;;;;4.40;1.20;;;26.40;62.20;;;;;;4937278;29;20482;-86
2022/09/03 20:11:20;;;;;;;1.40;1.30;;;26.40;64.20;;;;;;4940294;29;20446;-93
2022/09/03 20:16:39;;;;;;;1.50;1.40;;;26.50;64.20;;;;;;4940042;29;20406;-90
2022/09/03 20:19:17;;;;;;;1.30;1.20;;;26.50;64.20;;;;;;4939941;29;21069;-92
2022/09/03 20:21:50;;;;;;;1.40;1.30;;;26.50;64.20;;;;;;4941654;29;20462;-91
2022/09/03 20:24:38;;;;;;;1.50;1.20;;;26.50;64.20;;;;;;4940873;29;20811;-92
2022/09/03 20:27:16;;;;;;;1.30;1.20;;;26.50;64.20;;;;;;4939493;29;20478;-89
2022/09/03 20:29:54;;;;;;;2.40;1.13;;;26.50;65.10;;;;;;4940171;29;20427;-89
2022/09/03 20:32:59;;;;;;;1.40;1.30;;;26.50;64.20;;;;;;4939580;29;20483;-93
2022/09/03 20:35:37;;;;;;;1.50;1.40;;;26.50;64.20;;;;;;4862101;29;20864;-90
2022/09/03 20:38:19;;;;;;;1.50;1.30;;;26.50;64.10;;;;;;4926859;29;20465;-90
2022/09/03 20:40:53;;;;;;;1.50;1.10;;;26.50;64.20;;;;;;4939493;29;20454;-88
2022/09/03 20:43:46;;;;;;;1.10;1.00;;;26.50;64.30;;;;;;4939826;29;20850;-89